Time;durP1;ratioP1;P1;durP2;ratioP2;P2;SDS_P1;SDS_P2;PMS_P1;PMS_P2;Temp;Humidity;BMP_temperature;BMP_pressure;BME280_temperature;BME280_humidity;BME280_pressure;Samples;Min_cycle;Max_cycle;Signal;HPM_P1;HPM_P2
2020/12/21 00:00:22;;;;;;;;;;;26.70;39.80;;;;;;5032270;28;19916;-42
2020/12/21 00:02:47;;;;;;;;;;;26.70;39.80;;;;;;5032076;28;19933;-42
2020/12/21 00:05:13;;;;;;;;;;;26.70;39.70;;;;;;5032543;28;20363;-42
2020/12/21 00:07:38;;;;;;;;;;;26.80;40.10;;;;;;5032343;28;20383;-42
2020/12/21 00:10:04;;;;;;;;;;;26.80;39.80;;;;;;5032259;28;20355;-42
2020/12/21 00:12:29;;;;;;;;;;;26.70;39.80;;;;;;5031989;28;19921;-42
2020/12/21 00:14:55;;;;;;;;;;;26.70;39.80;;;;;;5032458;28;19909;-42
2020/12/21 00:17:20;;;;;;;;;;;26.70;39.90;;;;;;5031916;28;19913;-43
2020/12/21 00:19:46;;;;;;;;;;;26.80;39.90;;;;;;5032427;28;19936;-43
2020/12/21 00:22:11;;;;;;;;;;;26.70;39.80;;;;;;5034504;28;19928;-42
2020/12/21 00:24:37;;;;;;;;;;;26.80;39.90;;;;;;5035207;28;20066;-42
2020/12/21 00:27:02;;;;;;;;;;;26.80;39.70;;;;;;5035613;28;19988;-48
2020/12/21 00:29:28;;;;;;;;;;;26.80;39.80;;;;;;5035866;28;20368;-42
2020/12/21 00:31:55;;;;;;;;;;;26.70;39.90;;;;;;5035837;28;19909;-42
2020/12/21 00:34:20;;;;;;;;;;;26.70;39.80;;;;;;5035423;28;19909;-42
2020/12/21 00:36:50;;;;;;;;;;;26.70;39.80;;;;;;5035328;28;20019;-44
2020/12/21 00:39:15;;;;;;;;;;;26.70;39.90;;;;;;5033430;28;19916;-45
2020/12/21 00:41:41;;;;;;;;;;;26.60;40.20;;;;;;5034435;28;19925;-50
2020/12/21 00:44:07;;;;;;;;;;;26.60;40.30;;;;;;5035326;28;19967;-53
2020/12/21 00:46:32;;;;;;;;;;;26.60;40.30;;;;;;5035629;28;19909;-50
2020/12/21 00:48:58;;;;;;;;;;;26.70;40.30;;;;;;5035567;28;20376;-49
2020/12/21 00:51:24;;;;;;;;;;;26.80;40.10;;;;;;5035023;28;19917;-49
2020/12/21 00:53:50;;;;;;;;;;;26.80;40.00;;;;;;5035467;28;19967;-50
2020/12/21 00:56:16;;;;;;;;;;;26.80;40.00;;;;;;5035146;28;19909;-52
2020/12/21 00:58:41;;;;;;;;;;;26.90;40.00;;;;;;5035056;28;19913;-58
2020/12/21 01:01:07;;;;;;;;;;;26.90;40.10;;;;;;5035143;28;20363;-51
2020/12/21 01:03:33;;;;;;;;;;;26.90;40.00;;;;;;5035345;28;19920;-57
2020/12/21 01:05:59;;;;;;;;;;;26.80;40.10;;;;;;5035378;28;19913;-56
2020/12/21 01:08:24;;;;;;;;;;;26.80;40.00;;;;;;5035046;28;19963;-56
2020/12/21 01:10:50;;;;;;;;;;;26.80;39.90;;;;;;5034641;28;19920;-51
2020/12/21 01:13:15;;;;;;;;;;;26.90;39.80;;;;;;5034397;28;19928;-47
2020/12/21 01:15:42;;;;;;;;;;;26.90;39.80;;;;;;5034556;28;20481;-47
2020/12/21 01:18:08;;;;;;;;;;;26.90;39.80;;;;;;5034860;28;19917;-49
2020/12/21 01:20:33;;;;;;;;;;;26.90;39.80;;;;;;5034744;28;20295;-50
2020/12/21 01:22:59;;;;;;;;;;;26.90;39.80;;;;;;5034814;28;19924;-47
2020/12/21 01:25:24;;;;;;;;;;;26.90;39.70;;;;;;5034509;28;19909;-49
2020/12/21 01:27:50;;;;;;;;;;;26.90;39.80;;;;;;5034467;28;19913;-49
2020/12/21 01:30:15;;;;;;;;;;;27.00;39.80;;;;;;5034473;28;19913;-49
2020/12/21 01:32:41;;;;;;;;;;;27.00;39.70;;;;;;5034163;28;19909;-48
2020/12/21 01:35:06;;;;;;;;;;;27.00;39.70;;;;;;5034652;28;19920;-47
2020/12/21 01:37:32;;;;;;;;;;;26.90;39.80;;;;;;5034679;28;19952;-47
2020/12/21 01:39:57;;;;;;;;;;;27.00;39.80;;;;;;5034559;28;20398;-47
2020/12/21 01:42:23;;;;;;;;;;;27.00;39.60;;;;;;5034424;28;20367;-47
2020/12/21 01:44:48;;;;;;;;;;;27.00;39.70;;;;;;5033591;28;19928;-49
2020/12/21 01:47:17;;;;;;;;;;;27.00;39.80;;;;;;5034371;28;20027;-47
2020/12/21 01:49:43;;;;;;;;;;;27.00;39.60;;;;;;5014359;28;19910;-49
2020/12/21 01:52:08;;;;;;;;;;;27.00;39.60;;;;;;5025795;28;19923;-48
2020/12/21 01:54:34;;;;;;;;;;;27.00;39.50;;;;;;5034023;28;19913;-48
2020/12/21 01:56:59;;;;;;;;;;;27.00;39.70;;;;;;5033086;28;19909;-48
2020/12/21 01:59:25;;;;;;;;;;;27.00;39.70;;;;;;5033887;28;19909;-45
2020/12/21 02:01:51;;;;;;;;;;;27.00;39.70;;;;;;5033836;28;19917;-47
2020/12/21 02:04:16;;;;;;;;;;;27.10;39.60;;;;;;5032900;28;19909;-50
2020/12/21 02:06:42;;;;;;;;;;;27.00;39.70;;;;;;5033598;28;19910;-58
2020/12/21 02:09:07;;;;;;;;;;;27.00;40.40;;;;;;5033759;28;20323;-60
2020/12/21 02:11:33;;;;;;;;;;;27.00;40.20;;;;;;5033784;28;20307;-55
2020/12/21 02:13:58;;;;;;;;;;;27.10;39.90;;;;;;5033646;28;19929;-60
2020/12/21 02:16:24;;;;;;;;;;;27.00;39.80;;;;;;5033236;28;19913;-54
2020/12/21 02:18:49;;;;;;;;;;;27.10;39.80;;;;;;5033769;28;20291;-57
2020/12/21 02:21:15;;;;;;;;;;;27.10;39.90;;;;;;5033824;28;19917;-59
2020/12/21 02:23:40;;;;;;;;;;;27.10;39.80;;;;;;5033707;28;19984;-53
2020/12/21 02:26:05;;;;;;;;;;;27.10;39.80;;;;;;5033706;28;20363;-48
2020/12/21 02:28:31;;;;;;;;;;;27.10;39.70;;;;;;5033408;28;19971;-50
2020/12/21 02:30:56;;;;;;;;;;;27.00;39.60;;;;;;5033285;28;19916;-51
2020/12/21 02:33:23;;;;;;;;;;;27.00;39.60;;;;;;5033273;28;19982;-54
2020/12/21 02:35:48;;;;;;;;;;;27.00;39.80;;;;;;5033535;28;20007;-52
2020/12/21 02:38:14;;;;;;;;;;;27.00;39.80;;;;;;5033498;28;19996;-46
2020/12/21 02:40:42;;;;;;;;;;;27.00;39.80;;;;;;5033209;28;19912;-48
2020/12/21 02:43:08;;;;;;;;;;;27.10;39.70;;;;;;5033330;28;19948;-47
2020/12/21 02:45:33;;;;;;;;;;;27.10;39.80;;;;;;5032450;28;19952;-49
2020/12/21 02:47:59;;;;;;;;;;;27.00;39.60;;;;;;5033358;28;19917;-45
2020/12/21 02:50:24;;;;;;;;;;;27.00;39.70;;;;;;5033039;28;19913;-46
2020/12/21 02:52:50;;;;;;;;;;;27.00;39.60;;;;;;5032734;28;19917;-44
2020/12/21 02:55:15;;;;;;;;;;;27.00;39.80;;;;;;5032682;28;19909;-44
2020/12/21 02:57:40;;;;;;;;;;;26.90;39.80;;;;;;5032667;28;19959;-44
2020/12/21 03:00:07;;;;;;;;;;;27.00;40.00;;;;;;5033306;28;20275;-44
2020/12/21 03:02:32;;;;;;;;;;;26.90;39.80;;;;;;5033202;28;19917;-44
2020/12/21 03:04:58;;;;;;;;;;;26.90;39.90;;;;;;5033109;28;20460;-44
2020/12/21 03:07:23;;;;;;;;;;;26.90;40.00;;;;;;5032886;28;19916;-44
2020/12/21 03:09:49;;;;;;;;;;;26.90;40.00;;;;;;5033226;28;19919;-44
2020/12/21 03:12:14;;;;;;;;;;;26.90;40.10;;;;;;5032104;28;20449;-44
2020/12/21 03:14:40;;;;;;;;;;;26.90;39.80;;;;;;5033084;28;19917;-44
2020/12/21 03:17:05;;;;;;;;;;;26.90;40.00;;;;;;5033162;28;19913;-44
2020/12/21 03:19:30;;;;;;;;;;;26.90;40.10;;;;;;5032769;28;19910;-44
2020/12/21 03:21:56;;;;;;;;;;;26.90;40.00;;;;;;5032717;28;19917;-44
2020/12/21 03:24:21;;;;;;;;;;;26.80;40.00;;;;;;5032984;28;19963;-44
2020/12/21 03:26:47;;;;;;;;;;;26.80;40.10;;;;;;5032558;28;19913;-44
2020/12/21 03:29:14;;;;;;;;;;;26.80;40.10;;;;;;5032922;28;19991;-44
2020/12/21 03:31:39;;;;;;;;;;;26.80;40.20;;;;;;5032695;28;20364;-44
2020/12/21 03:34:04;;;;;;;;;;;26.80;40.20;;;;;;5032302;28;19917;-44
2020/12/21 03:36:30;;;;;;;;;;;26.80;40.20;;;;;;5032917;28;20339;-44
2020/12/21 03:38:55;;;;;;;;;;;26.70;40.20;;;;;;5032696;28;19913;-44
2020/12/21 03:41:21;;;;;;;;;;;26.80;40.20;;;;;;5032772;28;19917;-44
2020/12/21 03:43:46;;;;;;;;;;;26.80;40.10;;;;;;5032691;28;20351;-44
2020/12/21 03:46:12;;;;;;;;;;;26.80;40.20;;;;;;5032702;28;19909;-44
2020/12/21 03:48:37;;;;;;;;;;;26.80;40.20;;;;;;5032285;28;19913;-44
2020/12/21 03:51:03;;;;;;;;;;;26.80;40.20;;;;;;5032551;28;19909;-44
2020/12/21 03:53:28;;;;;;;;;;;26.70;40.20;;;;;;5032393;28;19920;-44
2020/12/21 03:55:54;;;;;;;;;;;26.80;40.20;;;;;;5032308;28;19920;-43
2020/12/21 03:58:19;;;;;;;;;;;26.80;40.10;;;;;;5036317;28;19990;-44
2020/12/21 04:00:44;;;;;;;;;;;26.70;40.20;;;;;;5036509;28;19963;-44
2020/12/21 04:03:10;;;;;;;;;;;26.70;40.20;;;;;;5036542;28;19919;-44
2020/12/21 04:05:35;;;;;;;;;;;26.70;40.20;;;;;;5036486;28;19920;-43
2020/12/21 04:08:01;;;;;;;;;;;26.80;40.20;;;;;;5036093;28;19921;-43
2020/12/21 04:10:26;;;;;;;;;;;26.70;40.10;;;;;;5036099;28;19916;-44
2020/12/21 04:12:52;;;;;;;;;;;26.70;40.20;;;;;;5035609;28;20012;-43
2020/12/21 04:15:17;;;;;;;;;;;26.70;40.20;;;;;;5036334;28;20363;-44
2020/12/21 04:17:43;;;;;;;;;;;26.70;40.20;;;;;;5035995;28;19962;-44
2020/12/21 04:20:08;;;;;;;;;;;26.70;40.20;;;;;;5016300;28;20390;-43
2020/12/21 04:22:34;;;;;;;;;;;26.70;40.20;;;;;;5021193;28;20011;-44
2020/12/21 04:24:59;;;;;;;;;;;26.70;40.20;;;;;;5035924;28;19956;-43
2020/12/21 04:27:25;;;;;;;;;;;26.70;40.20;;;;;;5035984;28;20330;-43
2020/12/21 04:29:50;;;;;;;;;;;26.70;40.10;;;;;;5035906;28;19909;-44
2020/12/21 04:32:16;;;;;;;;;;;26.70;40.20;;;;;;5035484;28;20079;-43
2020/12/21 04:34:41;;;;;;;;;;;26.70;40.20;;;;;;5035326;28;20382;-44
2020/12/21 04:37:07;;;;;;;;;;;26.70;40.10;;;;;;5034690;28;19955;-58
2020/12/21 04:39:32;;;;;;;;;;;26.50;40.50;;;;;;5035245;28;19920;-56
2020/12/21 04:41:58;;;;;;;;;;;26.40;40.70;;;;;;5035173;28;19943;-53
2020/12/21 04:44:24;;;;;;;;;;;26.50;40.60;;;;;;5035041;28;19960;-54
2020/12/21 04:46:55;;;;;;;;;;;26.60;40.50;;;;;;5034944;28;20020;-57
2020/12/21 04:49:21;;;;;;;;;;;26.70;40.40;;;;;;5034079;28;19948;-56
2020/12/21 04:51:47;;;;;;;;;;;26.70;40.30;;;;;;5035138;28;19917;-56
2020/12/21 04:54:16;;;;;;;;;;;26.70;40.40;;;;;;5035102;28;20430;-54
2020/12/21 04:56:42;;;;;;;;;;;26.70;40.30;;;;;;5035478;28;19909;-56
2020/12/21 04:59:07;;;;;;;;;;;26.70;40.20;;;;;;5034755;28;19963;-57
2020/12/21 05:01:33;;;;;;;;;;;26.70;40.20;;;;;;5034328;28;20012;-53
2020/12/21 05:03:58;;;;;;;;;;;26.70;40.20;;;;;;5034084;28;19917;-56
2020/12/21 05:06:24;;;;;;;;;;;26.70;40.10;;;;;;5034390;28;19917;-54
2020/12/21 05:09:00;;;;;;;;;;;26.70;40.10;;;;;;5034807;28;19913;-54
2020/12/21 05:11:26;;;;;;;;;;;26.70;40.10;;;;;;5034706;28;20264;-52
2020/12/21 05:13:51;;;;;;;;;;;26.70;40.10;;;;;;5034205;28;19927;-54
2020/12/21 05:16:23;;;;;;;;;;;26.70;40.10;;;;;;5033113;28;19924;-56
2020/12/21 05:18:48;;;;;;;;;;;26.70;40.10;;;;;;5033962;28;19917;-57
2020/12/21 05:21:14;;;;;;;;;;;26.70;40.10;;;;;;5034651;28;19935;-56
2020/12/21 05:23:55;;;;;;;;;;;26.70;40.10;;;;;;5034002;28;20385;-54
2020/12/21 05:26:25;;;;;;;;;;;26.70;40.00;;;;;;5033040;28;20299;-56
2020/12/21 05:28:50;;;;;;;;;;;26.70;40.00;;;;;;5034547;28;19913;-56
2020/12/21 05:31:15;;;;;;;;;;;26.70;40.10;;;;;;5034476;28;20378;-54
2020/12/21 05:33:42;;;;;;;;;;;26.70;40.00;;;;;;5033739;28;20051;-57
2020/12/21 05:36:09;;;;;;;;;;;26.70;40.00;;;;;;5034085;28;20321;-55
2020/12/21 05:38:35;;;;;;;;;;;26.70;40.00;;;;;;5034408;28;19920;-54
2020/12/21 05:41:27;;;;;;;;;;;26.70;40.00;;;;;;5033805;28;20004;-54
2020/12/21 05:43:52;;;;;;;;;;;26.70;40.00;;;;;;5032829;28;20379;-56
2020/12/21 05:46:22;;;;;;;;;;;26.60;40.00;;;;;;5033878;28;19917;-56
2020/12/21 05:48:51;;;;;;;;;;;26.60;40.00;;;;;;5033360;28;19996;-55
2020/12/21 05:51:21;;;;;;;;;;;26.70;40.00;;;;;;5034000;28;20371;-56
2020/12/21 05:53:46;;;;;;;;;;;26.60;40.00;;;;;;5034267;28;19909;-53
2020/12/21 05:56:12;;;;;;;;;;;26.60;40.00;;;;;;5033564;28;19932;-54
2020/12/21 05:58:38;;;;;;;;;;;26.60;40.00;;;;;;5034093;28;19983;-57
2020/12/21 06:01:08;;;;;;;;;;;26.60;40.00;;;;;;5033765;28;20000;-54
2020/12/21 06:03:35;;;;;;;;;;;26.60;40.00;;;;;;5033553;28;19936;-54
2020/12/21 06:06:01;;;;;;;;;;;26.60;40.00;;;;;;5031947;28;19921;-54
2020/12/21 06:08:26;;;;;;;;;;;26.60;40.00;;;;;;5032666;28;20304;-53
2020/12/21 06:10:54;;;;;;;;;;;26.60;40.00;;;;;;5031886;28;19913;-55
2020/12/21 06:13:19;;;;;;;;;;;26.60;40.00;;;;;;5033120;28;20391;-53
2020/12/21 06:15:45;;;;;;;;;;;26.60;40.00;;;;;;5032683;28;19913;-53
2020/12/21 06:18:10;;;;;;;;;;;26.60;40.00;;;;;;5031851;28;20229;-55
2020/12/21 06:20:42;;;;;;;;;;;26.50;40.00;;;;;;5033141;28;19913;-56
2020/12/21 06:23:10;;;;;;;;;;;26.50;40.00;;;;;;5033460;28;19924;-56
2020/12/21 06:25:36;;;;;;;;;;;26.50;40.00;;;;;;5032955;28;20425;-55
2020/12/21 06:28:06;;;;;;;;;;;26.50;40.00;;;;;;5033721;28;19953;-57
2020/12/21 06:30:31;;;;;;;;;;;26.50;40.00;;;;;;5032822;28;20286;-55
2020/12/21 06:33:01;;;;;;;;;;;26.50;40.10;;;;;;5033153;28;19917;-53
2020/12/21 06:35:26;;;;;;;;;;;26.50;40.10;;;;;;5033263;28;20378;-54
2020/12/21 06:37:58;;;;;;;;;;;26.50;40.10;;;;;;5033095;28;19909;-55
2020/12/21 06:40:30;;;;;;;;;;;26.50;40.10;;;;;;5033268;28;20688;-63
2020/12/21 06:43:04;;;;;;;;;;;26.50;40.10;;;;;;5032522;28;19921;-60
2020/12/21 06:45:33;;;;;;;;;;;26.50;40.10;;;;;;5031508;28;19928;-62
2020/12/21 06:47:58;;;;;;;;;;;26.50;40.10;;;;;;5032857;28;19976;-62
2020/12/21 06:50:24;;;;;;;;;;;26.50;40.10;;;;;;5033396;28;20347;-62
2020/12/21 06:52:49;;;;;;;;;;;26.40;39.90;;;;;;5032967;28;19913;-61
2020/12/21 06:55:15;;;;;;;;;;;26.50;40.00;;;;;;5032987;28;19913;-63
2020/12/21 06:57:40;;;;;;;;;;;26.50;39.90;;;;;;5033111;28;20335;-60
2020/12/21 07:00:06;;;;;;;;;;;26.50;40.50;;;;;;5032948;28;19909;-60
2020/12/21 07:02:31;;;;;;;;;;;26.40;39.80;;;;;;5032753;28;19921;-60
2020/12/21 07:04:57;;;;;;;;;;;26.50;39.80;;;;;;5032885;28;19909;-62
2020/12/21 07:07:22;;;;;;;;;;;26.50;39.70;;;;;;5031576;28;19909;-62
2020/12/21 07:09:48;;;;;;;;;;;26.40;39.70;;;;;;5032741;28;20288;-60
2020/12/21 07:12:13;;;;;;;;;;;26.50;39.70;;;;;;5032606;28;19921;-61
2020/12/21 07:14:39;;;;;;;;;;;26.40;39.70;;;;;;5032896;28;19913;-60
2020/12/21 07:17:04;;;;;;;;;;;26.50;39.60;;;;;;5032337;28;19940;-60
2020/12/21 07:19:33;;;;;;;;;;;26.50;39.50;;;;;;5032787;28;19917;-60
2020/12/21 07:21:58;;;;;;;;;;;26.40;39.60;;;;;;5032614;28;20402;-61
2020/12/21 07:24:24;;;;;;;;;;;26.50;39.70;;;;;;5032998;28;19909;-61
2020/12/21 07:26:50;;;;;;;;;;;26.50;39.60;;;;;;5032829;28;20414;-61
2020/12/21 07:29:15;;;;;;;;;;;26.40;39.50;;;;;;5032514;28;20003;-60
2020/12/21 07:31:41;;;;;;;;;;;26.40;39.50;;;;;;5036462;28;19955;-61
2020/12/21 07:34:06;;;;;;;;;;;26.40;39.50;;;;;;5034789;28;19967;-61
2020/12/21 07:36:37;;;;;;;;;;;26.50;39.50;;;;;;5036919;28;19944;-61
2020/12/21 07:39:05;;;;;;;;;;;26.40;39.50;;;;;;5036836;28;19951;-61
2020/12/21 07:41:30;;;;;;;;;;;26.50;39.50;;;;;;5036581;28;19928;-61
2020/12/21 07:44:06;;;;;;;;;;;26.50;39.60;;;;;;5035514;28;20275;-61
2020/12/21 07:46:35;;;;;;;;;;;26.40;39.50;;;;;;5036752;28;19909;-61
2020/12/21 07:49:00;;;;;;;;;;;26.40;39.50;;;;;;5034751;28;19910;-61
2020/12/21 07:51:25;;;;;;;;;;;26.40;39.50;;;;;;5034984;28;20031;-61
2020/12/21 07:53:51;;;;;;;;;;;26.50;39.40;;;;;;5035171;28;19909;-61
2020/12/21 07:56:17;;;;;;;;;;;26.50;39.40;;;;;;5035987;28;19913;-61
2020/12/21 07:58:42;;;;;;;;;;;26.40;39.10;;;;;;5036296;28;19910;-61
2020/12/21 08:01:08;;;;;;;;;;;26.40;39.50;;;;;;5036408;28;20241;-61
2020/12/21 08:03:36;;;;;;;;;;;26.40;39.30;;;;;;5035289;28;20055;-61
2020/12/21 08:06:08;;;;;;;;;;;26.40;39.30;;;;;;5036280;28;19913;-61
2020/12/21 08:08:34;;;;;;;;;;;26.40;39.30;;;;;;5036054;28;19991;-61
2020/12/21 08:11:00;;;;;;;;;;;26.40;39.30;;;;;;5035949;28;19917;-61
2020/12/21 08:13:25;;;;;;;;;;;26.40;39.30;;;;;;5035784;28;20032;-61
2020/12/21 08:15:51;;;;;;;;;;;26.40;39.20;;;;;;5035787;28;19943;-61
2020/12/21 08:18:16;;;;;;;;;;;26.40;39.20;;;;;;5036117;28;19937;-61
2020/12/21 08:20:42;;;;;;;;;;;26.40;39.20;;;;;;5036015;28;20375;-61
2020/12/21 08:23:07;;;;;;;;;;;26.40;39.20;;;;;;5034386;28;19921;-61
2020/12/21 08:25:33;;;;;;;;;;;26.40;39.20;;;;;;5035422;28;19913;-61
2020/12/21 08:27:58;;;;;;;;;;;26.40;39.20;;;;;;5035718;28;19913;-61
2020/12/21 08:30:24;;;;;;;;;;;26.50;39.20;;;;;;5035520;28;20338;-61
2020/12/21 08:32:50;;;;;;;;;;;26.40;39.10;;;;;;5035862;28;19920;-61
2020/12/21 08:35:25;;;;;;;;;;;26.50;39.20;;;;;;5035781;28;19916;-61
2020/12/21 08:37:50;;;;;;;;;;;26.50;39.20;;;;;;5035544;28;19913;-61
2020/12/21 08:40:16;;;;;;;;;;;26.50;39.20;;;;;;5035083;28;19917;-61
2020/12/21 08:42:42;;;;;;;;;;;26.50;39.10;;;;;;5034631;28;19921;-60
2020/12/21 08:45:08;;;;;;;;;;;26.50;39.20;;;;;;5035688;28;19909;-61
2020/12/21 08:47:33;;;;;;;;;;;26.50;39.20;;;;;;5035479;28;19920;-61
2020/12/21 08:50:02;;;;;;;;;;;26.40;39.00;;;;;;5035564;28;19913;-61
2020/12/21 08:52:27;;;;;;;;;;;26.50;39.00;;;;;;5035143;28;20451;-61
2020/12/21 08:54:53;;;;;;;;;;;26.50;39.10;;;;;;5035227;28;19956;-61
2020/12/21 08:57:18;;;;;;;;;;;26.50;39.10;;;;;;5034774;28;20379;-61
2020/12/21 08:59:43;;;;;;;;;;;26.40;39.00;;;;;;5035308;28;19909;-61
2020/12/21 09:02:09;;;;;;;;;;;26.50;39.00;;;;;;5034165;28;19925;-62
2020/12/21 09:04:34;;;;;;;;;;;26.40;39.00;;;;;;5035236;28;19909;-61
2020/12/21 09:07:00;;;;;;;;;;;26.40;39.00;;;;;;5035268;28;19909;-61
2020/12/21 09:09:25;;;;;;;;;;;26.40;39.00;;;;;;5034823;28;19909;-61
2020/12/21 09:11:54;;;;;;;;;;;26.40;39.00;;;;;;5034647;28;19953;-61
2020/12/21 09:14:24;;;;;;;;;;;26.40;39.00;;;;;;5035140;28;19971;-61
2020/12/21 09:16:49;;;;;;;;;;;26.40;39.00;;;;;;5034470;28;19917;-61
2020/12/21 09:19:15;;;;;;;;;;;26.40;39.10;;;;;;5034995;28;19913;-61
2020/12/21 09:21:41;;;;;;;;;;;26.40;39.00;;;;;;5034589;28;20024;-61
2020/12/21 09:24:07;;;;;;;;;;;26.40;39.10;;;;;;5034992;28;19916;-61
2020/12/21 09:26:32;;;;;;;;;;;26.40;39.10;;;;;;5034819;28;19913;-61
2020/12/21 09:28:58;;;;;;;;;;;26.40;39.00;;;;;;5033659;28;19913;-61
2020/12/21 09:31:23;;;;;;;;;;;26.40;39.00;;;;;;5034360;28;20006;-61
2020/12/21 09:33:49;;;;;;;;;;;26.40;39.00;;;;;;5034365;28;20340;-61
2020/12/21 09:36:15;;;;;;;;;;;26.40;39.00;;;;;;5034336;28;19917;-61
2020/12/21 09:38:40;;;;;;;;;;;26.40;39.00;;;;;;5034522;28;20279;-61
2020/12/21 09:41:06;;;;;;;;;;;26.40;39.00;;;;;;5034262;28;19925;-61
2020/12/21 09:43:32;;;;;;;;;;;26.40;38.90;;;;;;5034453;28;20375;-61
2020/12/21 09:45:57;;;;;;;;;;;26.40;38.90;;;;;;5034250;28;19913;-61
2020/12/21 09:48:23;;;;;;;;;;;26.50;39.00;;;;;;5034446;28;19913;-61
2020/12/21 09:50:48;;;;;;;;;;;26.40;38.90;;;;;;5033463;28;19996;-61
2020/12/21 09:53:14;;;;;;;;;;;26.40;38.90;;;;;;5032520;28;19981;-61
2020/12/21 09:55:39;;;;;;;;;;;26.40;38.90;;;;;;5033552;28;19913;-61
2020/12/21 09:58:05;;;;;;;;;;;26.40;38.90;;;;;;5033399;28;19909;-61
2020/12/21 10:00:31;;;;;;;;;;;26.50;38.90;;;;;;5034086;28;19916;-61
2020/12/21 10:02:56;;;;;;;;;;;26.50;38.90;;;;;;5033765;28;19971;-61
2020/12/21 10:05:21;;;;;;;;;;;26.50;38.80;;;;;;5034194;28;19917;-66
2020/12/21 10:07:47;;;;;;;;;;;26.50;38.90;;;;;;5033668;28;20455;-66
2020/12/21 10:10:12;;;;;;;;;;;26.50;38.80;;;;;;5033205;28;19917;-66
2020/12/21 10:12:38;;;;;;;;;;;26.50;38.80;;;;;;5033365;28;20071;-65
2020/12/21 10:15:04;;;;;;;;;;;26.50;38.80;;;;;;5033865;28;19920;-66
2020/12/21 10:17:29;;;;;;;;;;;26.50;38.80;;;;;;5034026;28;19917;-67
2020/12/21 10:19:55;;;;;;;;;;;26.50;38.80;;;;;;5033507;28;19999;-67
2020/12/21 10:22:20;;;;;;;;;;;26.50;38.80;;;;;;5033469;28;20063;-67
2020/12/21 10:24:46;;;;;;;;;;;26.50;38.80;;;;;;5033190;28;19920;-67
2020/12/21 10:27:11;;;;;;;;;;;26.50;38.80;;;;;;5033679;28;19909;-68
2020/12/21 10:29:37;;;;;;;;;;;26.50;38.80;;;;;;5033136;28;19913;-68
2020/12/21 10:32:02;;;;;;;;;;;26.50;38.80;;;;;;5033621;28;19936;-68
2020/12/21 10:34:28;;;;;;;;;;;26.50;38.80;;;;;;5033269;28;19916;-68
2020/12/21 10:36:53;;;;;;;;;;;26.50;38.80;;;;;;5033125;28;19924;-69
2020/12/21 10:39:19;;;;;;;;;;;26.40;38.80;;;;;;5033242;28;20294;-68
2020/12/21 10:41:44;;;;;;;;;;;26.40;38.80;;;;;;5033388;28;19918;-69
2020/12/21 10:44:09;;;;;;;;;;;26.50;38.80;;;;;;5033401;28;19936;-69
2020/12/21 10:46:35;;;;;;;;;;;26.50;38.70;;;;;;5033422;28;20046;-68
2020/12/21 10:49:00;;;;;;;;;;;26.50;38.80;;;;;;5033283;28;19909;-68
2020/12/21 10:51:27;;;;;;;;;;;26.50;38.80;;;;;;5033083;28;20382;-68
2020/12/21 10:53:53;;;;;;;;;;;26.50;38.80;;;;;;5032928;28;19913;-68
2020/12/21 10:56:18;;;;;;;;;;;26.40;38.70;;;;;;5032751;28;19920;-68
2020/12/21 10:58:44;;;;;;;;;;;26.40;38.80;;;;;;5032856;28;19913;-68
2020/12/21 11:01:09;;;;;;;;;;;26.50;38.80;;;;;;5032780;28;19921;-68
2020/12/21 11:03:35;;;;;;;;;;;26.40;38.90;;;;;;5032845;28;20287;-68
2020/12/21 11:06:00;;;;;;;;;;;26.40;38.80;;;;;;5032458;28;19943;-68
2020/12/21 11:08:26;;;;;;;;;;;26.40;38.70;;;;;;5032479;28;19909;-68
2020/12/21 11:10:51;;;;;;;;;;;26.50;38.80;;;;;;5033049;28;19909;-68
2020/12/21 11:13:17;;;;;;;;;;;26.50;38.80;;;;;;5032633;28;19921;-68
2020/12/21 11:15:42;;;;;;;;;;;26.50;38.70;;;;;;5032793;28;19909;-68
2020/12/21 11:18:08;;;;;;;;;;;26.50;38.80;;;;;;5032767;28;19921;-68
2020/12/21 11:20:33;;;;;;;;;;;26.50;38.80;;;;;;5032463;28;19935;-68
2020/12/21 11:22:59;;;;;;;;;;;26.50;38.80;;;;;;5032647;28;20031;-68
2020/12/21 11:25:24;;;;;;;;;;;26.40;38.70;;;;;;5032642;28;19952;-67
2020/12/21 11:27:50;;;;;;;;;;;26.50;38.80;;;;;;5032928;28;19917;-67
2020/12/21 11:30:15;;;;;;;;;;;26.50;38.80;;;;;;5032823;28;20279;-68
2020/12/21 11:32:41;;;;;;;;;;;26.50;38.70;;;;;;5032803;28;19916;-68
2020/12/21 11:35:06;;;;;;;;;;;26.40;38.70;;;;;;5031068;28;19909;-68
2020/12/21 11:37:32;;;;;;;;;;;26.40;38.70;;;;;;5032159;28;19913;-68
2020/12/21 11:39:57;;;;;;;;;;;26.50;38.80;;;;;;5032246;28;19914;-68
2020/12/21 11:42:23;;;;;;;;;;;26.50;38.70;;;;;;5032331;28;20007;-68
2020/12/21 11:44:48;;;;;;;;;;;26.40;38.70;;;;;;5032745;28;19910;-68
2020/12/21 11:47:14;;;;;;;;;;;26.50;38.80;;;;;;5032430;28;19909;-68
2020/12/21 11:49:39;;;;;;;;;;;26.40;38.70;;;;;;5032452;28;19923;-68
2020/12/21 11:52:05;;;;;;;;;;;26.40;38.70;;;;;;5032682;28;19920;-68
2020/12/21 11:54:31;;;;;;;;;;;26.50;38.70;;;;;;5032051;28;20363;-68
2020/12/21 11:56:56;;;;;;;;;;;26.40;38.70;;;;;;5032268;28;19917;-68
2020/12/21 11:59:22;;;;;;;;;;;26.40;38.70;;;;;;5032827;28;19909;-67
2020/12/21 12:01:47;;;;;;;;;;;26.50;38.70;;;;;;5032263;28;20287;-68
2020/12/21 12:04:13;;;;;;;;;;;26.40;38.60;;;;;;5032482;28;19910;-68
2020/12/21 12:06:38;;;;;;;;;;;26.40;38.70;;;;;;5032081;28;19956;-68
2020/12/21 12:09:04;;;;;;;;;;;26.40;38.70;;;;;;5032510;28;19909;-68
2020/12/21 12:11:29;;;;;;;;;;;26.40;38.80;;;;;;5032041;28;19909;-68
2020/12/21 12:13:54;;;;;;;;;;;26.40;38.70;;;;;;5032562;28;19917;-69
2020/12/21 12:16:24;;;;;;;;;;;26.40;38.70;;;;;;5032591;28;20375;-69
2020/12/21 12:18:50;;;;;;;;;;;26.40;38.70;;;;;;5035618;28;19917;-68
2020/12/21 12:21:24;;;;;;;;;;;26.40;38.70;;;;;;5035997;28;19920;-70
2020/12/21 12:23:50;;;;;;;;;;;26.40;38.70;;;;;;5035168;28;20003;-70
2020/12/21 12:26:16;;;;;;;;;;;26.40;38.70;;;;;;5036041;28;20011;-70
2020/12/21 12:28:41;;;;;;;;;;;26.50;38.70;;;;;;5035749;28;20379;-70
2020/12/21 12:31:07;;;;;;;;;;;26.40;38.70;;;;;;5035814;28;19917;-70
2020/12/21 12:33:32;;;;;;;;;;;26.40;38.70;;;;;;5035208;28;19913;-69
2020/12/21 12:35:58;;;;;;;;;;;26.40;38.70;;;;;;5035557;28;19914;-69
2020/12/21 12:38:23;;;;;;;;;;;26.40;38.70;;;;;;5035533;28;20393;-70
2020/12/21 12:40:49;;;;;;;;;;;26.40;38.70;;;;;;5035501;28;19916;-69
2020/12/21 12:43:14;;;;;;;;;;;26.40;38.70;;;;;;5035534;28;19945;-69
2020/12/21 12:45:40;;;;;;;;;;;26.40;38.70;;;;;;5035331;28;20287;-69
2020/12/21 12:48:05;;;;;;;;;;;26.40;38.70;;;;;;5035549;28;19909;-69
2020/12/21 12:50:30;;;;;;;;;;;26.40;38.70;;;;;;5035406;28;20351;-69
2020/12/21 12:52:56;;;;;;;;;;;26.40;38.70;;;;;;5035161;28;19964;-69
2020/12/21 12:55:21;;;;;;;;;;;26.40;38.70;;;;;;5034247;28;19921;-69
2020/12/21 12:57:47;;;;;;;;;;;26.40;38.70;;;;;;5035024;28;20393;-69
2020/12/21 13:00:12;;;;;;;;;;;26.40;38.70;;;;;;5034940;28;20000;-69
2020/12/21 13:02:38;;;;;;;;;;;26.40;38.70;;;;;;5035105;28;19917;-69
2020/12/21 13:05:03;;;;;;;;;;;26.40;38.70;;;;;;5034998;28;19909;-69
2020/12/21 13:07:29;;;;;;;;;;;26.40;38.60;;;;;;5034742;28;19910;-69
2020/12/21 13:09:54;;;;;;;;;;;26.40;38.60;;;;;;5034885;28;19913;-69
2020/12/21 13:12:20;;;;;;;;;;;26.40;38.70;;;;;;5033964;28;19932;-69
2020/12/21 13:14:45;;;;;;;;;;;26.40;38.70;;;;;;5034469;28;19913;-65
2020/12/21 13:17:11;;;;;;;;;;;26.30;35.50;;;;;;5034688;28;19913;-63
2020/12/21 13:19:36;;;;;;;;;;;25.70;32.70;;;;;;5034629;28;19962;-66
2020/12/21 13:22:02;;;;;;;;;;;25.00;32.20;;;;;;5034677;28;20371;-63
2020/12/21 13:24:28;;;;;;;;;;;24.20;32.90;;;;;;5034706;28;19909;-63
2020/12/21 13:26:53;;;;;;;;;;;24.30;35.20;;;;;;5034877;28;19909;-65
2020/12/21 13:29:22;;;;;;;;;;;24.70;37.00;;;;;;5034720;28;20405;-65
2020/12/21 13:31:47;;;;;;;;;;;25.10;38.70;;;;;;5034839;28;19967;-64
2020/12/21 13:34:13;;;;;;;;;;;25.50;40.40;;;;;;5034320;28;20382;-68
2020/12/21 13:36:38;;;;;;;;;;;25.90;43.90;;;;;;5034208;28;19920;-67
2020/12/21 13:39:04;;;;;;;;;;;26.10;43.60;;;;;;5034757;28;19909;-66
2020/12/21 13:41:29;;;;;;;;;;;26.30;43.70;;;;;;5034496;28;20015;-68
2020/12/21 13:43:54;;;;;;;;;;;26.30;43.50;;;;;;5034186;28;19932;-66
2020/12/21 13:46:20;;;;;;;;;;;26.40;43.00;;;;;;5033549;28;19956;-63
2020/12/21 13:48:45;;;;;;;;;;;26.40;43.10;;;;;;5033319;28;19917;-61
2020/12/21 13:51:11;;;;;;;;;;;26.50;42.60;;;;;;5034117;28;19913;-66
2020/12/21 13:53:37;;;;;;;;;;;26.50;43.00;;;;;;5034518;28;19909;-68
2020/12/21 13:56:02;;;;;;;;;;;26.40;43.30;;;;;;5034302;28;20401;-69
2020/12/21 13:58:28;;;;;;;;;;;26.50;43.40;;;;;;5033867;28;20231;-69
2020/12/21 14:00:53;;;;;;;;;;;26.60;43.40;;;;;;5033223;28;19913;-64
2020/12/21 14:03:18;;;;;;;;;;;26.60;43.30;;;;;;5033603;28;20333;-69
2020/12/21 14:05:44;;;;;;;;;;;26.60;43.10;;;;;;5034046;28;19909;-68
2020/12/21 14:08:10;;;;;;;;;;;26.70;43.30;;;;;;5034142;28;19920;-68